Weirwood, Virginia
Current Conditions -  °F | °C
As of 2:55 AM on Wednesday 26 Nov 2014 (Local Time) from KMFV Reporting Station
Light Rain Light Rain  
Wind Chill: 44°   Ceiling: 2800
Heat Index: 48°   Visibility: 10mi
Dew Point: 39°   Wind: 9mph
Humidity: 71%   Direction: 30°NNE
Pressure: 30.06"   Gusts: 17mph
Location:  37.4737°N, 75.8516°W
Report Text: KMFV 260755Z AUTO 03008G15KT 10SM -RA SCT022 OVC028 09/04 A3006 RMK AO2
Loading
Personal Weather Stations






























Interactive Weather Map New forecast layout! Learn more

10-Day Weather Forecast

Advertisements
Track Severe Weather on mobile